Time;durP1;ratioP1;P1;durP2;ratioP2;P2;SDS_P1;SDS_P2;PMS_P1;PMS_P2;Temp;Humidity;BMP_temperature;BMP_pressure;BME280_temperature;BME280_humidity;BME280_pressure;Samples;Min_cycle;Max_cycle;Signal;HPM_P1;HPM_P2
2023/09/04 00:01:21;;;;;;;;;;;;;;;26.92;54.68;101214.44;5054999;28;20396;-87
2023/09/04 00:03:46;;;;;;;;;;;;;;;26.90;54.68;101208.22;5051887;28;20409;-87
2023/09/04 00:06:11;;;;;;;;;;;;;;;26.91;54.94;101201.94;5051350;28;19917;-88
2023/09/04 00:08:37;;;;;;;;;;;;;;;26.91;54.95;101211.78;5051291;28;19917;-88
2023/09/04 00:11:02;;;;;;;;;;;;;;;26.86;54.85;101203.78;5052129;28;20474;-87
2023/09/04 00:13:28;;;;;;;;;;;;;;;26.86;55.04;101210.91;5049921;28;19924;-87
2023/09/04 00:15:56;;;;;;;;;;;;;;;26.83;55.15;101202.91;5053798;28;20302;-87
2023/09/04 00:18:21;;;;;;;;;;;;;;;26.89;55.01;101194.81;5034190;28;19935;-87
2023/09/04 00:20:48;;;;;;;;;;;;;;;26.85;55.12;101187.69;5050837;28;20379;-87
2023/09/04 00:23:13;;;;;;;;;;;;;;;26.83;55.18;101186.81;5057316;28;19917;-87
2023/09/04 00:25:39;;;;;;;;;;;;;;;26.79;54.98;101184.13;5026725;28;19924;-87
2023/09/04 00:28:04;;;;;;;;;;;;;;;26.81;54.92;101182.34;5027035;28;20000;-87
2023/09/04 00:30:30;;;;;;;;;;;;;;;26.85;55.06;101176.97;5033509;28;19970;-88
2023/09/04 00:32:55;;;;;;;;;;;;;;;26.89;54.71;101174.25;5060509;28;20030;-89
2023/09/04 00:35:21;;;;;;;;;;;;;;;26.86;54.88;101176.06;5061963;28;19947;-87
2023/09/04 00:37:46;;;;;;;;;;;;;;;26.81;55.02;101166.25;5051676;28;20014;-87
2023/09/04 00:40:12;;;;;;;;;;;;;;;26.84;54.96;101168.06;5053131;28;19913;-87
2023/09/04 00:42:37;;;;;;;;;;;;;;;26.87;54.90;101159.09;5068172;28;19917;-88
2023/09/04 00:45:04;;;;;;;;;;;;;;;26.86;54.75;101158.22;5037132;28;19924;-89
2023/09/04 00:47:30;;;;;;;;;;;;;;;26.84;54.98;101151.06;5050470;28;19952;-88
2023/09/04 00:49:55;;;;;;;;;;;;;;;26.81;54.70;101143.94;5072267;28;19917;-89
2023/09/04 00:52:22;;;;;;;;;;;;;;;26.82;54.97;101148.41;5070502;28;19913;-88
2023/09/04 00:54:48;;;;;;;;;;;;;;;26.82;55.03;101137.69;5078606;28;19920;-87
2023/09/04 00:57:13;;;;;;;;;;;;;;;26.82;54.71;101135.03;5049104;28;19917;-88
2023/09/04 00:59:40;;;;;;;;;;;;;;;26.80;54.98;101136.81;5035015;28;19920;-89
2023/09/04 01:02:06;;;;;;;;;;;;;;;26.80;54.73;101131.47;5053342;28;20021;-88
2023/09/04 01:04:32;;;;;;;;;;;;;;;26.81;54.80;101135.91;5062092;28;19913;-88
2023/09/04 01:06:57;;;;;;;;;;;;;;;26.79;54.82;101127.88;5067979;28;20416;-87
2023/09/04 01:09:24;;;;;;;;;;;;;;;26.79;54.98;101127.00;5081337;28;19912;-88
2023/09/04 01:11:50;;;;;;;;;;;;;;;26.81;54.68;101125.19;5050561;28;19971;-86
2023/09/04 01:14:17;;;;;;;;;;;;;;;26.82;54.58;101129.66;5035759;28;19920;-88
2023/09/04 01:16:43;;;;;;;;;;;;;;;26.79;55.05;101133.22;5075919;28;19913;-88
2023/09/04 01:19:10;;;;;;;;;;;;;;;26.81;54.71;101138.59;5083052;28;19971;-88
2023/09/04 01:21:36;;;;;;;;;;;;;;;26.77;54.99;101139.50;5074828;28;19913;-86
2023/09/04 01:24:02;;;;;;;;;;;;;;;26.79;54.79;101145.75;5035147;28;19917;-87
2023/09/04 01:26:33;;;;;;;;;;;;;;;26.78;54.93;101144.88;5040513;28;19913;-87
2023/09/04 01:29:18;;;;;;;;;;;;;;;26.77;54.78;101151.09;5064779;28;19936;-87
2023/09/04 01:31:47;;;;;;;;;;;;;;;26.77;54.89;101150.22;5044339;28;19917;-86
2023/09/04 01:34:18;;;;;;;;;;;;;;;26.76;54.88;101146.66;5072703;28;19946;-87
2023/09/04 01:36:43;;;;;;;;;;;;;;;26.72;54.90;101142.22;5042692;28;19913;-85
2023/09/04 01:39:09;;;;;;;;;;;;;;;26.74;55.00;101139.53;5065364;28;19924;-88
2023/09/04 01:41:36;;;;;;;;;;;;;;;26.72;54.94;101135.97;5047550;28;20420;-86
2023/09/04 01:44:02;;;;;;;;;;;;;;;26.71;54.99;101137.78;5036304;28;19986;-86
2023/09/04 01:46:27;;;;;;;;;;;;;;;26.70;54.93;101133.31;5065670;28;20382;-87
2023/09/04 01:48:55;;;;;;;;;;;;;;;26.69;54.86;101134.22;5054198;28;19976;-87
2023/09/04 01:51:21;;;;;;;;;;;;;;;26.69;54.90;101133.31;5056316;28;19924;-86
2023/09/04 01:53:47;;;;;;;;;;;;;;;26.69;54.76;101126.19;5057265;28;19917;-86
2023/09/04 01:56:12;;;;;;;;;;;;;;;26.65;54.80;101121.75;5059149;28;20365;-84
2023/09/04 01:58:38;;;;;;;;;;;;;;;26.64;54.82;101121.75;5067576;28;20275;-88
2023/09/04 02:01:05;;;;;;;;;;;;;;;26.70;54.55;101119.91;5068981;28;19916;-87
2023/09/04 02:03:31;;;;;;;;;;;;;;;26.66;54.66;101119.94;5040392;28;19916;-86
2023/09/04 02:05:56;;;;;;;;;;;;;;;26.68;54.79;101120.81;5039276;28;20279;-84
2023/09/04 02:08:21;;;;;;;;;;;;;;;26.66;54.66;101125.31;5051250;28;20008;-87
2023/09/04 02:10:48;;;;;;;;;;;;;;;26.66;54.68;101117.28;5072850;28;19966;-85
2023/09/04 02:13:13;;;;;;;;;;;;;;;26.62;55.11;101121.75;5063115;28;19980;-86
2023/09/04 02:15:40;;;;;;;;;;;;;;;26.63;54.80;101118.19;5041611;28;19948;-86
2023/09/04 02:18:05;;;;;;;;;;;;;;;26.65;54.86;101124.44;5063516;28;19916;-87
2023/09/04 02:20:31;;;;;;;;;;;;;;;26.64;54.82;101125.31;5066719;28;19919;-86
2023/09/04 02:22:59;;;;;;;;;;;;;;;26.64;54.82;101129.78;5062143;28;19920;-87
2023/09/04 02:25:24;;;;;;;;;;;;;;;26.62;54.91;101132.47;5066835;28;19916;-86
2023/09/04 02:27:51;;;;;;;;;;;;;;;26.60;54.64;101132.47;5066306;28;20298;-87
2023/09/04 02:30:16;;;;;;;;;;;;;;;26.63;54.61;101133.34;5051146;28;20416;-87
2023/09/04 02:32:43;;;;;;;;;;;;;;;26.62;54.84;101132.47;5037467;28;19948;-88
2023/09/04 02:35:08;;;;;;;;;;;;;;;26.61;54.67;101136.06;5062436;28;19916;-87
2023/09/04 02:37:34;;;;;;;;;;;;;;;26.59;54.78;101138.72;5050506;28;19920;-87
2023/09/04 02:39:59;;;;;;;;;;;;;;;26.59;54.92;101136.06;5072688;28;19917;-87
2023/09/04 02:42:27;;;;;;;;;;;;;;;26.61;54.86;101136.06;5073213;28;19921;-90
2023/09/04 02:44:53;;;;;;;;;;;;;;;26.62;54.62;101144.97;5041660;28;19913;-88
2023/09/04 02:47:18;;;;;;;;;;;;;;;26.56;54.66;101149.47;5037931;28;19927;-88
2023/09/04 02:49:43;;;;;;;;;;;;;;;26.55;55.02;101144.09;5054715;28;20359;-88
2023/09/04 02:52:09;;;;;;;;;;;;;;;26.54;54.94;101139.63;5059931;28;19943;-89
2023/09/04 02:54:34;;;;;;;;;;;;;;;26.54;54.85;101147.66;5072584;28;19916;-88
2023/09/04 02:57:00;;;;;;;;;;;;;;;26.52;55.00;101152.13;5060944;28;19924;-88
2023/09/04 02:59:25;;;;;;;;;;;;;;;26.51;54.94;101142.31;5068057;28;19982;-88
2023/09/04 03:01:51;;;;;;;;;;;;;;;26.54;54.65;101158.38;5060680;28;19920;-89
2023/09/04 03:04:16;;;;;;;;;;;;;;;26.53;54.59;101161.97;5055935;28;19950;-85
2023/09/04 03:06:42;;;;;;;;;;;;;;;26.54;54.62;101163.72;5055266;28;19913;-87
2023/09/04 03:09:07;;;;;;;;;;;;;;;26.50;54.92;101165.56;5071267;28;19916;-87
2023/09/04 03:11:33;;;;;;;;;;;;;;;26.55;54.76;101165.53;5062173;28;19920;-86
2023/09/04 03:13:58;;;;;;;;;;;;;;;26.54;54.59;101170.00;5061213;28;19960;-88
2023/09/04 03:16:24;;;;;;;;;;;;;;;26.53;54.81;101167.31;5038030;28;19966;-87
2023/09/04 03:18:49;;;;;;;;;;;;;;;26.50;54.87;101165.56;5064262;28;20363;-88
2023/09/04 03:21:14;;;;;;;;;;;;;;;26.47;55.08;101176.25;5057518;28;19920;-86
2023/09/04 03:23:40;;;;;;;;;;;;;;;26.51;54.69;101171.78;5040778;28;19920;-86
2023/09/04 03:26:05;;;;;;;;;;;;;;;26.47;54.69;101175.38;5072313;28;20394;-87
2023/09/04 03:28:32;;;;;;;;;;;;;;;26.52;54.78;101184.28;5047235;28;20451;-85
2023/09/04 03:30:57;;;;;;;;;;;;;;;26.47;54.78;101173.59;5043109;28;19924;-88
2023/09/04 03:33:23;;;;;;;;;;;;;;;26.47;55.04;101178.06;5081634;28;20014;-83
2023/09/04 03:35:50;;;;;;;;;;;;;;;26.48;54.95;101172.69;5068283;28;19919;-86
2023/09/04 03:38:16;;;;;;;;;;;;;;;26.47;54.67;101170.03;5071777;28;20462;-87
2023/09/04 03:40:41;;;;;;;;;;;;;;;26.47;54.64;101168.22;5074458;28;19991;-86
2023/09/04 03:43:07;;;;;;;;;;;;;;;26.48;54.84;101177.16;5081066;28;19980;-86
2023/09/04 03:45:33;;;;;;;;;;;;;;;26.45;54.62;101178.06;5077081;28;19917;-87
2023/09/04 03:47:59;;;;;;;;;;;;;;;26.44;54.67;101170.94;5060968;28;20420;-87
2023/09/04 03:50:25;;;;;;;;;;;;;;;26.34;54.95;101169.19;5049500;28;19967;-86
2023/09/04 03:52:50;;;;;;;;;;;;;;;26.38;54.48;101187.03;5040297;28;19920;-86
2023/09/04 03:55:16;;;;;;;;;;;;;;;26.30;54.81;101181.69;5066903;28;19917;-86
2023/09/04 03:57:43;;;;;;;;;;;;;;;26.33;54.95;101184.38;5067166;28;20008;-86
2023/09/04 04:00:16;;;;;;;;;;;;;;;26.40;54.71;101178.09;5056426;28;20394;-86
2023/09/04 04:02:42;;;;;;;;;;;;;;;26.41;54.62;101173.63;5057315;28;19946;-87
2023/09/04 04:05:08;;;;;;;;;;;;;;;26.40;54.60;101164.69;5055739;28;19919;-86
2023/09/04 04:07:34;;;;;;;;;;;;;;;26.39;54.37;101165.63;5048655;28;20352;-86
2023/09/04 04:10:00;;;;;;;;;;;;;;;26.39;54.69;101170.06;5065628;28;19916;-87
2023/09/04 04:12:26;;;;;;;;;;;;;;;26.27;54.81;101149.59;5061697;28;19920;-85
2023/09/04 04:14:57;;;;;;;;;;;;;;;26.27;54.47;101151.38;5067019;28;19916;-86
2023/09/04 04:17:26;;;;;;;;;;;;;;;26.32;54.34;101149.56;5066925;28;19923;-84
2023/09/04 04:19:53;;;;;;;;;;;;;;;26.23;54.68;101150.50;5057811;28;20402;-87
2023/09/04 04:22:20;;;;;;;;;;;;;;;26.29;54.32;101145.13;5059591;28;19912;-88
2023/09/04 04:24:46;;;;;;;;;;;;;;;26.28;54.40;101146.00;5054860;28;19912;-86
2023/09/04 04:27:12;;;;;;;;;;;;;;;26.28;54.26;101140.66;5053459;28;19917;-85
2023/09/04 04:29:38;;;;;;;;;;;;;;;26.27;54.55;101130.84;5034589;28;19913;-87
2023/09/04 04:32:04;;;;;;;;;;;;;;;26.24;54.64;101140.69;5064227;28;20432;-87
2023/09/04 04:34:29;;;;;;;;;;;;;;;26.25;54.36;101139.81;5062914;28;20308;-85
2023/09/04 04:36:55;;;;;;;;;;;;;;;26.26;54.32;101136.22;5057136;28;20389;-84
2023/09/04 04:39:20;;;;;;;;;;;;;;;26.23;54.59;101137.13;5035742;28;20631;-84
2023/09/04 04:41:46;;;;;;;;;;;;;;;26.26;54.36;101134.41;5060831;28;19923;-84
2023/09/04 04:44:11;;;;;;;;;;;;;;;26.24;54.71;101124.63;5069069;28;19917;-85
2023/09/04 04:46:37;;;;;;;;;;;;;;;26.26;54.69;101120.16;5061929;28;20302;-85
2023/09/04 04:49:02;;;;;;;;;;;;;;;26.26;54.41;101122.81;5060185;28;19921;-85
2023/09/04 04:51:27;;;;;;;;;;;;;;;26.27;54.32;101120.16;5055270;28;19921;-85
2023/09/04 04:53:53;;;;;;;;;;;;;;;26.28;54.59;101119.22;5052393;28;19916;-86
2023/09/04 04:56:18;;;;;;;;;;;;;;;26.28;54.68;101119.22;5055347;28;20456;-86
2023/09/04 04:58:44;;;;;;;;;;;;;;;26.22;54.54;101121.06;5052852;28;20004;-85
2023/09/04 05:01:09;;;;;;;;;;;;;;;26.22;54.79;101115.69;5066482;28;19919;-85
2023/09/04 05:03:35;;;;;;;;;;;;;;;26.23;54.65;101121.06;5063172;28;20620;-80
2023/09/04 05:06:00;;;;;;;;;;;;;;;26.20;54.70;101119.28;5065078;28;19921;-84
2023/09/04 05:08:26;;;;;;;;;;;;;;;26.23;54.90;101122.84;5057815;28;20028;-83
2023/09/04 05:11:02;;;;;;;;;;;;;;;26.25;54.87;101129.09;5045168;28;19924;-83
2023/09/04 05:13:28;;;;;;;;;;;;;;;26.17;54.83;101135.34;5062793;28;19924;-84
2023/09/04 05:15:53;;;;;;;;;;;;;;;26.16;54.79;101144.31;5065683;28;19925;-83
2023/09/04 05:18:19;;;;;;;;;;;;;;;26.18;55.00;101152.28;5051592;28;19924;-83
2023/09/04 05:20:44;;;;;;;;;;;;;;;26.18;54.77;101149.63;5036666;28;20373;-84
2023/09/04 05:23:09;;;;;;;;;;;;;;;26.12;54.98;101137.19;5047597;28;19912;-85
2023/09/04 05:25:35;;;;;;;;;;;;;;;26.09;54.75;101142.53;5056116;28;19959;-81
2023/09/04 05:28:00;;;;;;;;;;;;;;;26.05;54.79;101154.13;5062980;28;19932;-82
2023/09/04 05:30:26;;;;;;;;;;;;;;;26.07;54.95;101154.13;5065101;28;19912;-82
2023/09/04 05:32:54;;;;;;;;;;;;;;;26.08;54.76;101161.28;5057594;28;20329;-83
2023/09/04 05:35:20;;;;;;;;;;;;;;;25.99;55.04;101163.09;5063145;28;19928;-84
2023/09/04 05:37:45;;;;;;;;;;;;;;;25.96;55.35;101163.09;5033578;28;19913;-82
2023/09/04 05:40:11;;;;;;;;;;;;;;;25.89;55.23;101171.16;5055693;28;20019;-83
2023/09/04 05:42:36;;;;;;;;;;;;;;;26.00;55.27;101175.56;5059181;28;20405;-82
2023/09/04 05:45:04;;;;;;;;;;;;;;;25.97;55.41;101182.72;5055052;28;20401;-83
2023/09/04 05:47:30;;;;;;;;;;;;;;;26.06;55.26;101182.69;5050866;28;20069;-82
2023/09/04 05:49:55;;;;;;;;;;;;;;;26.08;55.07;101180.03;5050008;28;20038;-83
2023/09/04 05:52:21;;;;;;;;;;;;;;;25.96;55.17;101179.16;5055156;28;20378;-84
2023/09/04 05:54:46;;;;;;;;;;;;;;;25.98;55.41;101184.50;5067980;28;20532;-83
2023/09/04 05:57:11;;;;;;;;;;;;;;;25.95;55.24;101180.06;5039570;28;20369;-82
2023/09/04 05:59:37;;;;;;;;;;;;;;;25.95;55.40;101177.38;5061843;28;19912;-83
2023/09/04 06:02:02;;;;;;;;;;;;;;;25.96;55.32;101178.25;5046244;28;20321;-82
2023/09/04 06:04:28;;;;;;;;;;;;;;;26.02;55.14;101167.53;5069669;28;20383;-83
2023/09/04 06:06:53;;;;;;;;;;;;;;;25.87;55.50;101176.47;5054850;28;19978;-82
2023/09/04 06:09:19;;;;;;;;;;;;;;;25.82;55.74;101175.56;5054718;28;19913;-82
2023/09/04 06:11:44;;;;;;;;;;;;;;;25.71;56.10;101167.56;5055349;28;19917;-83
2023/09/04 06:14:10;;;;;;;;;;;;;;;25.70;56.11;101167.59;5067616;28;19920;-81
2023/09/04 06:16:36;;;;;;;;;;;;;;;25.77;55.93;101172.03;5066302;28;19963;-83
2023/09/04 06:19:01;;;;;;;;;;;;;;;25.73;56.11;101164.91;5053796;28;19916;-83
2023/09/04 06:21:27;;;;;;;;;;;;;;;25.72;56.07;101166.69;5054804;28;19920;-82
2023/09/04 06:23:52;;;;;;;;;;;;;;;25.73;55.89;101171.13;5068937;28;19958;-83
2023/09/04 06:26:17;;;;;;;;;;;;;;;25.71;55.95;101174.72;5054782;28;20416;-82
2023/09/04 06:28:43;;;;;;;;;;;;;;;25.68;56.51;101172.06;5066787;28;20369;-82
2023/09/04 06:31:08;;;;;;;;;;;;;;;25.74;56.03;101172.94;5062382;28;19923;-82
2023/09/04 06:33:37;;;;;;;;;;;;;;;25.69;56.19;101180.06;5068352;28;19921;-83
2023/09/04 06:36:03;;;;;;;;;;;;;;;25.71;56.18;101186.31;5053305;28;20401;-84
2023/09/04 06:38:29;;;;;;;;;;;;;;;25.78;56.28;101190.78;5057799;28;19919;-84
2023/09/04 06:40:57;;;;;;;;;;;;;;;25.84;56.02;101196.97;5074922;28;19916;-86
2023/09/04 06:43:29;;;;;;;;;;;;;;;25.88;55.83;101188.06;5036133;28;19913;-82
2023/09/04 06:45:55;;;;;;;;;;;;;;;25.94;55.47;101205.03;5066928;28;20046;-84
2023/09/04 06:48:20;;;;;;;;;;;;;;;25.93;55.81;101208.59;5066491;28;20019;-82
2023/09/04 06:50:47;;;;;;;;;;;;;;;26.04;55.29;101210.38;5053827;28;19938;-83
2023/09/04 06:53:14;;;;;;;;;;;;;;;25.98;55.68;101208.59;5058930;28;19916;-84
2023/09/04 06:55:39;;;;;;;;;;;;;;;25.99;55.37;101213.94;5068079;28;20448;-84
2023/09/04 06:58:05;;;;;;;;;;;;;;;25.97;55.70;101228.19;5059074;28;19917;-85
2023/09/04 07:00:30;;;;;;;;;;;;;;;25.96;55.66;101227.31;5063804;28;20388;-82
2023/09/04 07:02:56;;;;;;;;;;;;;;;25.93;55.75;101231.78;5042555;28;20316;-82
2023/09/04 07:05:22;;;;;;;;;;;;;;;25.96;55.59;101227.31;5053663;28;20662;-86
2023/09/04 07:07:47;;;;;;;;;;;;;;;25.98;55.40;101220.19;5057839;28;19923;-82
2023/09/04 07:10:13;;;;;;;;;;;;;;;25.99;55.22;101221.97;5053700;28;19960;-83
2023/09/04 07:12:40;;;;;;;;;;;;;;;25.90;55.51;101230.00;5048646;28;20015;-83
2023/09/04 07:15:05;;;;;;;;;;;;;;;26.00;55.26;101222.84;5053735;28;19921;-83
2023/09/04 07:17:31;;;;;;;;;;;;;;;25.93;55.72;101211.28;5065662;28;20059;-83
2023/09/04 07:19:56;;;;;;;;;;;;;;;25.87;55.51;101210.38;5069398;28;20007;-83
2023/09/04 07:22:22;;;;;;;;;;;;;;;25.80;55.95;101220.16;5057230;28;19913;-83
2023/09/04 07:24:47;;;;;;;;;;;;;;;25.72;55.78;101214.84;5053594;28;19913;-82
2023/09/04 07:27:13;;;;;;;;;;;;;;;25.74;55.87;101218.41;5069370;28;20006;-83
2023/09/04 07:29:38;;;;;;;;;;;;;;;25.79;55.83;101216.63;5068794;28;19916;-84
2023/09/04 07:32:05;;;;;;;;;;;;;;;25.77;55.69;101214.84;5056610;28;19924;-82
2023/09/04 07:34:31;;;;;;;;;;;;;;;25.80;55.91;101214.81;5053420;28;20007;-83
2023/09/04 07:36:56;;;;;;;;;;;;;;;25.78;55.58;101216.59;5052664;28;19952;-82
2023/09/04 07:39:22;;;;;;;;;;;;;;;25.86;55.73;101219.28;5066068;28;20402;-83
2023/09/04 07:41:47;;;;;;;;;;;;;;;25.92;55.43;101213.94;5060190;28;20301;-81
2023/09/04 07:44:12;;;;;;;;;;;;;;;25.93;55.34;101213.03;5054359;28;19974;-82
2023/09/04 07:46:38;;;;;;;;;;;;;;;25.88;55.49;101218.38;5070497;28;20437;-82
2023/09/04 07:49:03;;;;;;;;;;;;;;;25.86;55.17;101211.25;5067774;28;19916;-82
2023/09/04 07:51:29;;;;;;;;;;;;;;;25.89;55.19;101217.53;5063753;28;20386;-82
2023/09/04 07:53:54;;;;;;;;;;;;;;;25.87;55.33;101227.31;5075309;28;19916;-83
2023/09/04 07:56:21;;;;;;;;;;;;;;;25.88;55.25;101223.72;5073813;28;20420;-82
2023/09/04 07:58:46;;;;;;;;;;;;;;;25.92;55.29;101222.88;5064466;28;19917;-82
2023/09/04 08:01:15;;;;;;;;;;;;;;;25.97;54.92;101225.53;5055476;28;20302;-82
2023/09/04 08:03:43;;;;;;;;;;;;;;;25.87;55.30;101215.72;5058447;28;19912;-82
2023/09/04 08:06:08;;;;;;;;;;;;;;;25.94;54.97;101214.84;5066527;28;19969;-82
2023/09/04 08:08:34;;;;;;;;;;;;;;;25.96;54.95;101207.69;5057748;28;20011;-84
2023/09/04 08:10:59;;;;;;;;;;;;;;;25.94;54.98;101213.06;5064854;28;20373;-82
2023/09/04 08:13:25;;;;;;;;;;;;;;;25.94;55.12;101217.53;5072373;28;19916;-82
2023/09/04 08:15:50;;;;;;;;;;;;;;;25.92;54.88;101216.63;5060710;28;19920;-81
2023/09/04 08:18:15;;;;;;;;;;;;;;;25.97;54.81;101213.06;5055237;28;19918;-81
2023/09/04 08:20:41;;;;;;;;;;;;;;;25.94;55.02;101213.06;5056623;28;20007;-81
2023/09/04 08:23:07;;;;;;;;;;;;;;;25.95;54.83;101212.16;5052232;28;20385;-81
2023/09/04 08:25:33;;;;;;;;;;;;;;;25.97;55.11;101204.13;5069003;28;20426;-83
2023/09/04 08:27:58;;;;;;;;;;;;;;;25.97;55.02;101205.03;5067025;28;19924;-83
2023/09/04 08:30:24;;;;;;;;;;;;;;;25.95;54.67;101205.91;5060018;28;20011;-81
2023/09/04 08:32:50;;;;;;;;;;;;;;;25.99;54.79;101210.34;5071589;28;19974;-83
2023/09/04 08:35:15;;;;;;;;;;;;;;;25.99;54.81;101205.91;5041828;28;19917;-81
2023/09/04 08:37:41;;;;;;;;;;;;;;;26.04;54.65;101205.00;5079933;28;19927;-81
2023/09/04 08:40:06;;;;;;;;;;;;;;;25.90;54.89;101197.91;5065927;28;20351;-82
2023/09/04 08:42:32;;;;;;;;;;;;;;;25.95;54.66;101205.91;5069918;28;20350;-83
2023/09/04 08:44:58;;;;;;;;;;;;;;;25.98;54.82;101197.88;5058013;28;20011;-84
2023/09/04 08:47:23;;;;;;;;;;;;;;;25.99;54.62;101197.88;5054399;28;19998;-80
2023/09/04 08:49:49;;;;;;;;;;;;;;;26.03;54.59;101200.53;5067718;28;20386;-83
2023/09/04 08:52:14;;;;;;;;;;;;;;;25.95;54.64;101193.44;5068326;28;19951;-83
2023/09/04 08:54:40;;;;;;;;;;;;;;;26.02;54.66;101191.63;5054479;28;19913;-82
2023/09/04 08:57:06;;;;;;;;;;;;;;;26.03;54.71;101189.84;5061187;28;19919;-82
2023/09/04 08:59:32;;;;;;;;;;;;;;;26.03;54.69;101190.72;5047621;28;20328;-81
2023/09/04 09:02:00;;;;;;;;;;;;;;;25.99;54.72;101188.94;5061500;28;19917;-81
2023/09/04 09:04:26;;;;;;;;;;;;;;;26.03;54.68;101184.47;5070107;28;19912;-81
2023/09/04 09:06:51;;;;;;;;;;;;;;;26.04;54.76;101180.94;5062120;28;19984;-80
2023/09/04 09:09:17;;;;;;;;;;;;;;;25.98;54.63;101174.69;5043305;28;19920;-80
2023/09/04 09:11:42;;;;;;;;;;;;;;;25.92;54.84;101172.03;5055859;28;19917;-81
2023/09/04 09:14:08;;;;;;;;;;;;;;;25.96;54.66;101156.84;5055800;28;20377;-80
2023/09/04 09:16:33;;;;;;;;;;;;;;;25.88;55.00;101161.31;5056416;28;19919;-80
2023/09/04 09:18:59;;;;;;;;;;;;;;;25.91;54.87;101161.34;5056582;28;19931;-81
2023/09/04 09:21:24;;;;;;;;;;;;;;;25.86;54.99;101161.31;5033143;28;20386;-81
2023/09/04 09:24:09;;;;;;;;;;;;;;;25.84;55.14;101163.09;5051918;28;19912;-81
2023/09/04 09:26:35;;;;;;;;;;;;;;;25.94;54.63;101164.88;5063070;28;20000;-82
2023/09/04 09:29:02;;;;;;;;;;;;;;;25.89;55.03;101156.00;5055141;28;19999;-81
2023/09/04 09:31:28;;;;;;;;;;;;;;;25.84;55.16;101159.53;5055201;28;19966;-80
2023/09/04 09:33:53;;;;;;;;;;;;;;;25.84;55.04;101162.19;5063361;28;19916;-81
2023/09/04 09:36:19;;;;;;;;;;;;;;;25.90;55.04;101160.44;5057586;28;20470;-81
2023/09/04 09:38:45;;;;;;;;;;;;;;;25.95;54.70;101158.66;5068515;28;19960;-81
2023/09/04 09:41:11;;;;;;;;;;;;;;;25.86;55.05;101150.59;5068811;28;19921;-82
2023/09/04 09:43:37;;;;;;;;;;;;;;;25.89;55.08;101147.97;5055128;28;19948;-81
2023/09/04 09:46:02;;;;;;;;;;;;;;;25.89;55.19;101141.72;5054914;28;19945;-82
2023/09/04 09:48:28;;;;;;;;;;;;;;;25.88;55.02;101131.88;5064214;28;19920;-81
2023/09/04 09:50:54;;;;;;;;;;;;;;;25.90;54.84;101136.34;5044384;28;19928;-81
2023/09/04 09:53:20;;;;;;;;;;;;;;;25.92;54.83;101128.31;5054741;28;20386;-80
2023/09/04 09:55:45;;;;;;;;;;;;;;;25.90;55.23;101124.75;5054572;28;20290;-81
2023/09/04 09:58:11;;;;;;;;;;;;;;;25.88;55.34;101122.06;5053345;28;20429;-80
2023/09/04 10:00:36;;;;;;;;;;;;;;;25.83;55.46;101131.88;5068575;28;20378;-82
2023/09/04 10:03:02;;;;;;;;;;;;;;;25.84;55.41;101138.13;5058578;28;20294;-83
2023/09/04 10:05:27;;;;;;;;;;;;;;;25.84;55.18;101143.47;5061384;28;19947;-82
2023/09/04 10:08:00;;;;;;;;;;;;;;;25.85;55.12;101145.28;5067171;28;20304;-82
2023/09/04 10:10:25;;;;;;;;;;;;;;;25.83;55.16;101141.72;5073827;28;19916;-81
2023/09/04 10:12:56;;;;;;;;;;;;;;;25.82;55.00;101147.94;5060017;28;19920;-84
2023/09/04 10:15:25;;;;;;;;;;;;;;;25.88;55.37;101145.25;5047293;28;21894;-80
2023/09/04 10:17:54;;;;;;;;;;;;;;;25.83;55.13;101155.97;5070741;28;20373;-80
2023/09/04 10:20:19;;;;;;;;;;;;;;;25.86;55.20;101163.09;5052960;28;19912;-80
2023/09/04 10:22:46;;;;;;;;;;;;;;;25.85;55.50;101150.63;5036445;28;19970;-80
2023/09/04 10:25:31;;;;;;;;;;;;;;;25.85;55.61;101159.53;5054323;28;20447;-82
2023/09/04 10:28:16;;;;;;;;;;;;;;;25.86;55.99;101177.34;5053217;28;19913;-82
2023/09/04 10:30:42;;;;;;;;;;;;;;;25.86;55.80;101169.31;5053841;28;19943;-81
2023/09/04 10:33:07;;;;;;;;;;;;;;;25.87;55.75;101168.44;5053325;28;19913;-82
2023/09/04 10:35:33;;;;;;;;;;;;;;;25.88;56.09;101178.25;5054757;28;19992;-82
2023/09/04 10:37:58;;;;;;;;;;;;;;;25.89;56.12;101171.16;5052209;28;19916;-81
2023/09/04 10:40:24;;;;;;;;;;;;;;;25.87;56.08;101184.50;5067201;28;19999;-81
2023/09/04 10:42:49;;;;;;;;;;;;;;;25.93;55.73;101165.78;5054004;28;19919;-81
2023/09/04 10:45:15;;;;;;;;;;;;;;;25.96;55.81;101186.28;5053682;28;19913;-81
2023/09/04 10:47:49;;;;;;;;;;;;;;;25.95;55.53;101182.72;5053608;28;20493;-81
2023/09/04 10:50:27;;;;;;;;;;;;;;;25.94;55.48;101167.56;5053461;28;19920;-81
2023/09/04 10:52:53;;;;;;;;;;;;;;;25.96;55.62;101170.25;5054606;28;19916;-80
2023/09/04 10:55:19;;;;;;;;;;;;;;;25.90;56.39;101164.91;5053986;28;20477;-81
2023/09/04 10:57:55;;;;;;;;;;;;;;;25.89;57.41;101149.75;5053907;28;20407;-80
2023/09/04 11:00:30;;;;;;;;;;;;;;;25.94;56.66;101153.28;5061815;28;19917;-81
2023/09/04 11:02:56;;;;;;;;;;;;;;;25.94;56.46;101153.28;5052631;28;20359;-81
2023/09/04 11:05:26;;;;;;;;;;;;;;;25.92;56.16;101152.41;5055644;28;19916;-82
2023/09/04 11:07:51;;;;;;;;;;;;;;;25.93;56.77;101151.50;5037939;28;19995;-81
2023/09/04 11:10:37;;;;;;;;;;;;;;;25.95;56.57;101160.41;5036362;28;19912;-82
2023/09/04 11:13:02;;;;;;;;;;;;;;;25.98;56.26;101155.06;5052525;28;20386;-82
2023/09/04 11:15:28;;;;;;;;;;;;;;;26.03;56.20;101149.69;5066635;28;19971;-83
2023/09/04 11:17:54;;;;;;;;;;;;;;;25.99;56.41;101151.47;5049819;28;19913;-81
2023/09/04 11:20:23;;;;;;;;;;;;;;;25.99;56.96;101149.72;5066525;28;19920;-83
2023/09/04 11:22:49;;;;;;;;;;;;;;;25.96;56.34;101140.81;5036721;28;20302;-81
2023/09/04 11:25:15;;;;;;;;;;;;;;;25.97;56.29;101137.22;5052647;28;20405;-82
2023/09/04 11:27:42;;;;;;;;;;;;;;;25.94;56.76;101131.88;5071935;28;19999;-82
2023/09/04 11:30:08;;;;;;;;;;;;;;;25.93;56.40;101136.34;5059587;28;19913;-82
2023/09/04 11:32:36;;;;;;;;;;;;;;;25.98;56.29;101139.00;5048624;28;19924;-83
2023/09/04 11:35:01;;;;;;;;;;;;;;;25.96;56.57;101132.78;5052106;28;20401;-81
2023/09/04 11:37:33;;;;;;;;;;;;;;;25.98;56.12;101130.97;5055061;28;19956;-81
2023/09/04 11:40:00;;;;;;;;;;;;;;;25.96;56.72;101144.34;5059233;28;19923;-82
2023/09/04 11:42:27;;;;;;;;;;;;;;;26.00;56.29;101131.88;5066578;28;20311;-80
2023/09/04 11:44:52;;;;;;;;;;;;;;;25.98;56.36;101133.66;5055014;28;19924;-81
2023/09/04 11:47:18;;;;;;;;;;;;;;;26.00;56.21;101135.41;5052819;28;19925;-82
2023/09/04 11:49:44;;;;;;;;;;;;;;;25.96;56.71;101128.31;5068799;28;19913;-82
2023/09/04 11:52:10;;;;;;;;;;;;;;;25.95;56.27;101136.31;5063690;28;19917;-82
2023/09/04 11:54:38;;;;;;;;;;;;;;;25.95;56.31;101136.31;5066079;28;19913;-81
2023/09/04 11:57:11;;;;;;;;;;;;;;;26.02;56.31;101138.09;5058250;28;20227;-82
2023/09/04 11:59:37;;;;;;;;;;;;;;;25.98;56.16;101137.22;5051288;28;19920;-81
2023/09/04 12:02:03;;;;;;;;;;;;;;;26.03;56.11;101137.19;5052198;28;19948;-82
2023/09/04 12:04:31;;;;;;;;;;;;;;;26.03;55.62;101139.88;5065849;28;19982;-82
2023/09/04 12:06:57;;;;;;;;;;;;;;;26.06;55.56;101141.66;5066779;28;19951;-82
2023/09/04 12:09:23;;;;;;;;;;;;;;;26.06;55.13;101128.28;5066280;28;20039;-81
2023/09/04 12:11:49;;;;;;;;;;;;;;;26.03;55.36;101133.63;5071380;28;19971;-81
2023/09/04 12:14:14;;;;;;;;;;;;;;;26.07;55.36;101132.72;5068506;28;19923;-81
2023/09/04 12:16:43;;;;;;;;;;;;;;;26.07;55.17;101125.56;5057596;28;19917;-80
2023/09/04 12:19:12;;;;;;;;;;;;;;;26.09;55.05;101129.13;5065230;28;19913;-81
2023/09/04 12:21:37;;;;;;;;;;;;;;;26.11;55.24;101115.75;5059384;28;19919;-80
2023/09/04 12:24:10;;;;;;;;;;;;;;;26.10;55.16;101122.91;5055159;28;19912;-82
2023/09/04 12:26:35;;;;;;;;;;;;;;;26.12;55.40;101122.88;5051949;28;19962;-80
2023/09/04 12:29:01;;;;;;;;;;;;;;;26.11;54.63;101129.13;5051151;28;20003;-80
2023/09/04 12:31:26;;;;;;;;;;;;;;;26.08;55.15;101119.34;5054633;28;19943;-81